Terminal Aerodrome Forecast
Issued by NWS Binghamton, NY

Home | Current Version | Previous Version | Text Only | Print | Product List | Glossary On
Versions: 1 2 3 4 5 6 7 8 9 10 11 12 13 14 15 16 17 18 19 20
771
FTUS41 KBGM 281136
TAFSYR
TAF
KSYR 281136Z 2812/0112 11005KT P6SM BKN050
     FM281500 13005KT P6SM BKN150
     FM281800 15008KT P6SM BKN080
     FM010000 17012G22KT P6SM -SHRA SCT025 OVC050=

USA.gov is the U.S. government's official web portal to all federal, state and local government web resources and services.